Time;durP1;ratioP1;P1;durP2;ratioP2;P2;SDS_P1;SDS_P2;PMS_P1;PMS_P2;Temp;Humidity;BMP_temperature;BMP_pressure;BME280_temperature;BME280_humidity;BME280_pressure;Samples;Min_cycle;Max_cycle;Signal;HPM_P1;HPM_P2
2022/09/04 00:01:22;;;;;;;1.95;1.50;;;13.60;99.90;;;;;;5070685;28;20032;-83
2022/09/04 00:04:15;;;;;;;1.30;1.30;;;13.70;99.90;;;;;;5060415;28;20049;-84
2022/09/04 00:07:17;;;;;;;1.42;1.33;;;13.70;99.90;;;;;;5045595;28;20030;-83
2022/09/04 00:09:51;;;;;;;1.38;1.27;;;13.60;99.90;;;;;;5042532;28;20021;-83
2022/09/04 00:12:24;;;;;;;1.90;1.38;;;13.60;99.90;;;;;;5050668;28;20022;-82
2022/09/04 00:15:12;;;;;;;1.70;1.60;;;13.60;99.90;;;;;;5047406;28;20028;-83
2022/09/04 00:17:53;;;;;;;1.17;1.17;;;13.60;99.90;;;;;;5056826;28;20488;-84
2022/09/04 00:20:28;;;;;;;1.50;1.40;;;13.60;99.90;;;;;;5048162;28;20029;-83
2022/09/04 00:23:24;;;;;;;1.58;1.27;;;13.60;99.90;;;;;;5067779;28;20506;-84
2022/09/04 00:26:01;;;;;;;1.17;1.08;;;13.60;99.90;;;;;;5066409;28;20024;-84
2022/09/04 00:28:36;;;;;;;1.52;1.42;;;13.60;99.90;;;;;;5045569;28;20068;-84
2022/09/04 00:31:29;;;;;;;1.40;1.30;;;13.60;99.90;;;;;;5042244;28;20029;-85
2022/09/04 00:34:18;;;;;;;1.50;1.40;;;13.60;99.90;;;;;;5053184;28;20040;-85
2022/09/04 00:36:50;;;;;;;1.20;1.20;;;13.60;99.90;;;;;;5063299;28;20507;-85
2022/09/04 00:39:22;;;;;;;1.97;1.23;;;13.60;99.90;;;;;;5040611;28;20029;-83
2022/09/04 00:42:49;;;;;;;1.55;1.45;;;13.60;99.90;;;;;;5059017;28;20240;-84
2022/09/04 00:45:52;;;;;;;2.05;1.90;;;13.60;99.90;;;;;;4937955;29;20035;-85
2022/09/04 00:48:32;;;;;;;2.58;1.48;;;13.60;99.90;;;;;;5059706;28;20033;-87
2022/09/04 00:51:19;;;;;;;2.35;1.52;;;13.70;99.90;;;;;;5076899;28;20033;-84
2022/09/04 00:54:09;;;;;;;1.70;1.60;;;13.70;99.90;;;;;;5055929;28;20017;-84
2022/09/04 00:57:12;;;;;;;1.55;1.45;;;13.60;99.90;;;;;;5040200;28;20033;-85
2022/09/04 01:00:05;;;;;;;1.42;1.35;;;13.70;99.90;;;;;;5053920;28;20124;-84
2022/09/04 01:02:31;;;;;;;;;;;13.60;99.90;;;;;;5056873;28;20029;-84
2022/09/04 01:05:31;;;;;;;1.50;1.40;;;13.60;99.90;;;;;;5043381;28;20363;-84
2022/09/04 01:08:06;;;;;;;2.25;1.13;;;13.60;99.90;;;;;;5038180;28;20017;-84
2022/09/04 01:10:53;;;;;;;1.52;1.42;;;13.70;99.90;;;;;;5037773;28;20025;-85
2022/09/04 01:13:41;;;;;;;2.15;1.55;;;13.70;99.90;;;;;;5038049;28;20480;-85
2022/09/04 01:16:15;;;;;;;1.35;1.30;;;13.70;99.90;;;;;;5037460;28;20091;-84
2022/09/04 01:19:03;;;;;;;2.53;1.73;;;13.80;99.90;;;;;;5038292;28;20071;-84
2022/09/04 01:21:53;;;;;;;1.55;1.45;;;13.90;99.90;;;;;;5038787;28;20029;-84
2022/09/04 01:24:51;;;;;;;1.55;1.45;;;14.00;99.90;;;;;;5038608;28;20029;-85
2022/09/04 01:27:22;;;;;;;2.03;1.55;;;14.00;99.90;;;;;;5056297;28;20088;-85
2022/09/04 01:30:01;;;;;;;1.50;1.40;;;14.10;99.90;;;;;;5057562;28;20028;-84
2022/09/04 01:32:36;;;;;;;1.42;1.20;;;14.10;99.90;;;;;;5051039;28;20172;-84
2022/09/04 01:35:20;;;;;;;4.90;1.63;;;14.20;99.90;;;;;;5061034;28;20025;-84
2022/09/04 01:37:58;;;;;;;1.40;1.30;;;14.20;99.90;;;;;;5055694;28;20491;-84
2022/09/04 01:40:45;;;;;;;2.28;1.17;;;14.20;99.90;;;;;;5054756;28;20056;-85
2022/09/04 01:43:12;;;;;;;1.50;1.40;;;14.20;99.90;;;;;;5047005;28;20029;-84
2022/09/04 01:46:11;;;;;;;1.65;1.40;;;14.30;99.90;;;;;;5054856;28;20029;-85
2022/09/04 01:48:55;;;;;;;1.65;1.42;;;14.30;99.90;;;;;;5064828;28;20035;-83
2022/09/04 01:51:42;;;;;;;1.70;1.60;;;14.30;99.90;;;;;;5059703;28;20029;-82
2022/09/04 01:54:11;;;;;;;1.98;1.70;;;14.40;99.90;;;;;;5059257;28;20025;-84
2022/09/04 01:56:43;;;;;;;2.05;1.90;;;14.30;99.90;;;;;;5034001;28;20025;-84
2022/09/04 01:59:46;;;;;;;1.80;1.70;;;14.30;99.90;;;;;;5037231;28;20030;-85
2022/09/04 02:02:32;;;;;;;1.38;1.30;;;14.30;99.90;;;;;;5041525;28;20040;-85
2022/09/04 02:05:00;;;;;;;1.60;1.50;;;14.20;99.90;;;;;;5059174;28;20025;-84
2022/09/04 02:07:44;;;;;;;2.03;1.40;;;14.20;99.90;;;;;;5054052;28;20021;-84
2022/09/04 02:10:37;;;;;;;2.20;1.60;;;14.10;99.90;;;;;;5059657;28;20029;-84
2022/09/04 02:13:28;;;;;;;1.30;1.30;;;14.10;99.90;;;;;;5049851;28;20523;-84
2022/09/04 02:16:19;;;;;;;1.75;1.45;;;14.10;99.90;;;;;;5069787;28;20025;-86
2022/09/04 02:19:15;;;;;;;2.03;1.83;;;14.10;99.90;;;;;;5067685;28;20029;-84
2022/09/04 02:22:22;;;;;;;1.25;1.20;;;14.10;99.90;;;;;;5044257;28;20399;-85
2022/09/04 02:25:17;;;;;;;1.55;1.45;;;14.20;99.90;;;;;;5042033;28;20452;-85
2022/09/04 02:28:01;;;;;;;1.30;1.30;;;14.20;99.90;;;;;;5060749;28;20052;-84
2022/09/04 02:30:36;;;;;;;1.85;1.75;;;14.30;99.90;;;;;;5060775;28;20029;-84
2022/09/04 02:33:18;;;;;;;1.80;1.70;;;14.30;99.90;;;;;;5060110;28;20017;-84
2022/09/04 02:35:58;;;;;;;1.90;1.55;;;14.30;99.90;;;;;;5040097;28;20411;-84
2022/09/04 02:39:16;;;;;;;1.23;1.23;;;14.40;99.90;;;;;;5021769;28;20042;-83
2022/09/04 02:41:50;;;;;;;1.60;1.50;;;14.40;99.90;;;;;;4951459;28;20097;-84
2022/09/04 02:44:28;;;;;;;1.33;1.25;;;14.40;99.90;;;;;;5040729;28;20053;-85
2022/09/04 02:47:03;;;;;;;1.38;1.27;;;14.40;99.90;;;;;;5022107;28;20455;-85
2022/09/04 02:49:47;;;;;;;1.45;1.33;;;14.40;99.90;;;;;;5041015;28;20058;-85
2022/09/04 02:52:44;;;;;;;1.30;1.20;;;14.40;99.90;;;;;;5022821;28;20017;-85
2022/09/04 02:55:46;;;;;;;1.30;1.20;;;14.40;99.90;;;;;;5040062;28;20085;-85
2022/09/04 02:58:41;;;;;;;1.52;1.42;;;14.40;99.90;;;;;;5042696;28;20044;-83
2022/09/04 03:01:11;;;;;;;0.90;0.90;;;14.40;99.90;;;;;;5011049;28;20094;-83
2022/09/04 03:03:48;;;;;;;1.30;1.20;;;14.40;99.90;;;;;;5040791;28;20044;-85
2022/09/04 03:06:39;;;;;;;2.17;1.10;;;14.30;99.90;;;;;;5038616;28;20116;-85
2022/09/04 03:09:11;;;;;;;1.05;1.05;;;14.20;99.90;;;;;;5045386;28;20029;-83
2022/09/04 03:11:46;;;;;;;1.30;1.20;;;14.20;99.90;;;;;;5047390;28;20025;-83
2022/09/04 03:14:24;;;;;;;1.30;1.20;;;14.10;99.90;;;;;;5038025;28;20067;-85
2022/09/04 03:17:01;;;;;;;2.28;1.45;;;14.00;99.90;;;;;;5020555;28;20084;-84
2022/09/04 03:19:58;;;;;;;1.75;1.65;;;14.00;99.90;;;;;;5026860;28;20036;-84
2022/09/04 03:22:30;;;;;;;3.22;1.90;;;14.00;99.90;;;;;;5067991;28;20025;-84
2022/09/04 03:25:32;;;;;;;1.55;1.42;;;13.80;99.90;;;;;;5067643;28;20048;-84
2022/09/04 03:27:59;;;;;;;;;;;13.80;99.90;;;;;;5069303;28;20025;-84
2022/09/04 03:30:26;;;;;;;2.90;1.42;;;13.80;99.90;;;;;;5038359;28;19968;-85
2022/09/04 03:33:04;;;;;;;2.05;1.83;;;13.70;99.90;;;;;;5067106;28;20043;-85
2022/09/04 03:35:47;;;;;;;1.40;1.35;;;13.70;99.90;;;;;;5049222;28;20036;-82
2022/09/04 03:38:27;;;;;;;2.33;1.60;;;13.70;99.90;;;;;;5046542;28;20021;-84
2022/09/04 03:40:52;;;;;;;2.38;1.45;;;13.70;99.90;;;;;;5056651;28;20041;-84
2022/09/04 03:43:43;;;;;;;1.55;1.45;;;13.70;99.90;;;;;;5049838;28;20030;-83
2022/09/04 03:46:26;;;;;;;1.60;1.50;;;13.70;99.90;;;;;;5048752;28;20029;-85
2022/09/04 03:49:16;;;;;;;1.73;1.63;;;13.70;99.90;;;;;;5034422;28;20420;-84
2022/09/04 03:51:54;;;;;;;1.50;1.40;;;13.70;99.90;;;;;;5059456;28;20040;-84
2022/09/04 03:54:29;;;;;;;1.50;1.40;;;13.70;99.90;;;;;;5061622;28;20071;-85
2022/09/04 03:57:18;;;;;;;1.88;1.77;;;13.70;99.90;;;;;;5061411;28;20491;-84
2022/09/04 03:59:56;;;;;;;2.22;1.90;;;13.70;99.90;;;;;;5059944;28;20632;-84
2022/09/04 04:02:36;;;;;;;2.33;2.10;;;13.70;99.90;;;;;;5051941;28;20039;-85
2022/09/04 04:05:09;;;;;;;2.05;1.85;;;13.70;99.90;;;;;;5045830;28;20022;-84
2022/09/04 04:07:37;;;;;;;2.38;1.88;;;13.70;99.90;;;;;;5039718;28;20029;-83
2022/09/04 04:10:32;;;;;;;2.05;1.85;;;13.70;99.90;;;;;;5037803;28;20379;-84
2022/09/04 04:13:32;;;;;;;2.20;1.85;;;13.70;99.90;;;;;;5047976;28;20051;-84
2022/09/04 04:15:57;;;;;;;1.90;1.80;;;13.70;99.90;;;;;;5039700;28;20025;-86
2022/09/04 04:18:48;;;;;;;1.73;1.60;;;13.80;99.90;;;;;;5038879;28;20423;-84
2022/09/04 04:21:54;;;;;;;2.15;1.80;;;13.80;99.90;;;;;;5039633;28;20021;-85
2022/09/04 04:24:41;;;;;;;1.67;1.58;;;13.80;99.90;;;;;;5039049;28;20021;-84
2022/09/04 04:27:24;;;;;;;1.48;1.38;;;13.80;99.90;;;;;;5037226;28;20114;-84
2022/09/04 04:30:02;;;;;;;2.20;2.10;;;13.80;99.90;;;;;;5037386;28;20022;-83
2022/09/04 04:32:35;;;;;;;1.80;1.70;;;13.80;99.90;;;;;;5039983;28;20041;-85
2022/09/04 04:35:04;;;;;;;3.38;1.60;;;13.80;99.90;;;;;;5055869;28;20036;-84
2022/09/04 04:37:42;;;;;;;1.85;1.75;;;13.80;99.90;;;;;;5061049;28;20028;-83
2022/09/04 04:40:23;;;;;;;1.52;1.42;;;13.70;99.90;;;;;;5057667;28;20037;-85
2022/09/04 04:43:23;;;;;;;1.67;1.58;;;13.60;99.90;;;;;;5055985;28;20094;-85
2022/09/04 04:45:58;;;;;;;2.60;1.52;;;13.60;99.90;;;;;;5055859;28;20035;-84
2022/09/04 04:51:39;;;;;;;2.25;2.08;;;13.60;99.90;;;;;;5007509;28;20058;-82
2022/09/04 04:54:21;;;;;;;2.05;1.95;;;13.60;99.90;;;;;;4996175;28;20018;-83
2022/09/04 04:56:56;;;;;;;1.98;1.88;;;13.70;99.90;;;;;;5003010;28;20023;-82
2022/09/04 04:59:33;;;;;;;1.90;1.80;;;13.70;99.90;;;;;;5008512;28;20026;-82
2022/09/04 05:02:27;;;;;;;1.90;1.73;;;13.80;99.90;;;;;;4988946;28;20134;-83
2022/09/04 05:05:18;;;;;;;2.90;1.70;;;13.80;99.90;;;;;;4996065;28;20019;-83
2022/09/04 05:08:06;;;;;;;2.08;1.88;;;13.80;99.90;;;;;;4998198;28;20014;-84
2022/09/04 05:10:57;;;;;;;1.85;1.75;;;13.80;99.90;;;;;;5013962;28;20015;-84
2022/09/04 05:14:17;;;;;;;2.47;1.95;;;13.70;99.90;;;;;;5016978;28;20078;-84
2022/09/04 05:17:11;;;;;;;2.33;1.90;;;13.70;99.90;;;;;;5015294;28;20064;-84
2022/09/04 05:19:55;;;;;;;3.05;1.83;;;13.80;99.90;;;;;;5016739;28;20025;-84
2022/09/04 05:22:43;;;;;;;1.88;1.73;;;13.80;99.90;;;;;;5016663;28;20022;-83
2022/09/04 05:25:15;;;;;;;2.33;2.13;;;13.80;99.90;;;;;;5003116;28;20049;-83
2022/09/04 05:28:19;;;;;;;1.98;1.73;;;13.80;99.90;;;;;;5000325;28;20090;-83
2022/09/04 05:31:26;;;;;;;1.95;1.73;;;13.80;99.90;;;;;;4999340;28;20022;-83
2022/09/04 05:34:39;;;;;;;2.22;1.88;;;13.80;99.90;;;;;;4977584;28;20023;-82
2022/09/04 05:37:27;;;;;;;1.92;1.77;;;13.90;99.90;;;;;;4982234;28;20505;-82
2022/09/04 05:40:34;;;;;;;1.60;1.50;;;13.90;99.90;;;;;;4981606;28;20046;-82
2022/09/04 05:43:37;;;;;;;2.33;2.00;;;14.00;99.90;;;;;;4976839;28;20038;-82
2022/09/04 05:46:29;;;;;;;1.92;1.83;;;14.10;99.90;;;;;;4977066;28;20026;-81
2022/09/04 05:49:33;;;;;;;2.28;2.08;;;14.20;99.90;;;;;;4979514;28;20030;-82
2022/09/04 05:52:21;;;;;;;2.00;1.90;;;14.30;99.90;;;;;;4989949;28;20043;-83
2022/09/04 05:55:11;;;;;;;2.17;2.05;;;14.30;99.90;;;;;;4984574;28;20034;-82
2022/09/04 05:58:00;;;;;;;1.63;1.48;;;14.40;99.90;;;;;;4981947;28;20041;-82
2022/09/04 06:00:51;;;;;;;1.65;1.55;;;14.50;99.90;;;;;;4979371;28;20022;-82
2022/09/04 06:03:42;;;;;;;1.95;1.73;;;14.70;99.90;;;;;;4975544;28;20069;-82
2022/09/04 06:06:41;;;;;;;1.98;1.48;;;14.80;99.90;;;;;;4986016;28;20054;-83
2022/09/04 06:09:41;;;;;;;1.95;1.85;;;14.80;99.90;;;;;;4986336;28;20042;-82
2022/09/04 06:12:45;;;;;;;1.80;1.70;;;14.80;99.90;;;;;;4988953;28;20019;-83
2022/09/04 06:15:31;;;;;;;1.80;1.67;;;14.80;99.90;;;;;;4992955;28;20026;-84
2022/09/04 06:18:16;;;;;;;1.90;1.80;;;14.90;99.90;;;;;;4997437;28;20043;-81
2022/09/04 06:21:14;;;;;;;1.70;1.58;;;14.90;99.90;;;;;;4986014;28;20031;-84
2022/09/04 06:23:52;;;;;;;1.83;1.73;;;15.00;99.90;;;;;;4982976;28;20122;-83
2022/09/04 06:26:49;;;;;;;2.15;1.92;;;15.10;99.90;;;;;;4983091;28;20030;-84
2022/09/04 06:29:30;;;;;;;1.83;1.73;;;15.20;99.90;;;;;;4985572;28;20019;-82
2022/09/04 06:32:26;;;;;;;1.80;1.70;;;15.30;99.90;;;;;;4987503;28;20050;-83
2022/09/04 06:35:23;;;;;;;1.65;1.45;;;15.40;99.90;;;;;;5025755;28;20023;-82
2022/09/04 06:38:10;;;;;;;1.73;1.63;;;15.40;99.90;;;;;;4984419;28;20054;-83
2022/09/04 06:41:09;;;;;;;2.00;1.90;;;15.50;99.90;;;;;;4988975;28;20051;-79
2022/09/04 06:43:39;;;;;;;1.95;1.80;;;15.60;99.90;;;;;;4987220;28;20058;-84
2022/09/04 06:46:29;;;;;;;1.45;1.45;;;15.60;99.90;;;;;;4983863;28;20033;-83
2022/09/04 06:49:08;;;;;;;1.50;1.40;;;15.80;99.90;;;;;;4986925;28;20019;-84
2022/09/04 06:51:41;;;;;;;1.77;1.67;;;15.80;99.90;;;;;;4990714;28;20511;-82
2022/09/04 06:54:26;;;;;;;1.80;1.70;;;15.90;99.90;;;;;;4989460;28;20037;-84
2022/09/04 06:57:10;;;;;;;3.53;1.30;;;16.00;99.90;;;;;;4991173;28;20184;-84
2022/09/04 06:59:45;;;;;;;1.80;1.70;;;16.10;99.90;;;;;;4986502;28;20034;-83
2022/09/04 07:02:43;;;;;;;2.33;2.00;;;16.10;99.90;;;;;;5008917;28;20029;-82
2022/09/04 07:05:30;;;;;;;1.60;1.50;;;16.30;99.90;;;;;;4989430;28;20054;-82
2022/09/04 07:08:37;;;;;;;1.80;1.50;;;16.40;99.90;;;;;;5007162;28;20137;-83
2022/09/04 07:11:19;;;;;;;1.70;1.60;;;16.50;99.90;;;;;;5024892;28;20048;-82
2022/09/04 07:14:19;;;;;;;2.00;1.90;;;16.70;99.90;;;;;;5008752;28;20037;-82
2022/09/04 07:17:06;;;;;;;1.88;1.77;;;16.80;99.90;;;;;;5006456;28;20026;-82
2022/09/04 07:19:34;;;;;;;1.58;1.50;;;16.90;99.90;;;;;;5007628;28;20092;-83
2022/09/04 07:22:21;;;;;;;2.00;1.77;;;17.10;99.90;;;;;;5007034;28;20054;-84
2022/09/04 07:25:17;;;;;;;1.73;1.63;;;17.20;99.90;;;;;;5039823;28;20082;-83
2022/09/04 07:28:01;;;;;;;1.50;1.40;;;17.40;99.90;;;;;;5016055;28;20026;-82
2022/09/04 07:30:36;;;;;;;3.53;1.83;;;17.60;99.90;;;;;;5006518;28;20025;-81
2022/09/04 07:33:09;;;;;;;1.58;1.48;;;17.80;99.90;;;;;;5005278;28;20026;-82
2022/09/04 07:36:07;;;;;;;1.55;1.45;;;17.90;99.90;;;;;;4986724;28;20030;-83
2022/09/04 07:38:55;;;;;;;1.73;1.63;;;18.10;99.90;;;;;;4985694;28;20053;-83
2022/09/04 07:41:52;;;;;;;1.60;1.50;;;18.30;99.90;;;;;;5002773;28;20558;-82
2022/09/04 07:44:45;;;;;;;1.67;1.58;;;18.50;99.90;;;;;;5002418;28;20030;-82
2022/09/04 07:47:18;;;;;;;1.80;1.40;;;18.60;99.90;;;;;;5014816;28;20437;-83
2022/09/04 07:50:08;;;;;;;1.73;1.35;;;18.90;99.90;;;;;;5022501;28;20072;-82
2022/09/04 07:52:49;;;;;;;3.25;1.70;;;19.00;99.90;;;;;;5004842;28;20021;-82
2022/09/04 07:55:46;;;;;;;2.00;1.90;;;19.20;99.90;;;;;;5023720;28;20078;-82
2022/09/04 07:58:18;;;;;;;2.38;1.38;;;19.40;99.90;;;;;;5031961;28;20041;-84
2022/09/04 08:01:02;;;;;;;1.33;1.23;;;19.60;99.90;;;;;;5020247;28;20153;-85
2022/09/04 08:03:47;;;;;;;3.03;1.48;;;19.80;98.90;;;;;;5003205;28;20083;-84
2022/09/04 08:06:20;;;;;;;1.92;1.70;;;20.00;97.80;;;;;;5026726;28;20053;-82
2022/09/04 08:08:49;;;;;;;1.90;1.40;;;20.00;97.40;;;;;;4987624;28;20046;-83
2022/09/04 08:11:28;;;;;;;1.65;1.40;;;20.20;97.20;;;;;;5004432;28;20150;-82
2022/09/04 08:14:01;;;;;;;1.90;1.55;;;20.40;96.50;;;;;;5019621;28;20123;-83
2022/09/04 08:16:44;;;;;;;2.70;1.63;;;20.60;96.30;;;;;;5018822;28;20050;-83
2022/09/04 08:19:39;;;;;;;1.80;1.65;;;20.70;95.40;;;;;;5031482;28;20011;-84
2022/09/04 08:22:07;;;;;;;1.65;1.40;;;20.90;93.90;;;;;;5032742;28;20006;-83
2022/09/04 08:25:08;;;;;;;2.20;1.92;;;21.00;93.50;;;;;;5017663;28;20048;-84
2022/09/04 08:27:58;;;;;;;1.65;1.55;;;21.20;92.90;;;;;;5017096;28;20038;-84
2022/09/04 08:30:31;;;;;;;1.60;1.50;;;21.40;92.40;;;;;;4998842;28;20019;-83
2022/09/04 08:33:39;;;;;;;1.60;1.50;;;21.60;91.60;;;;;;4990098;28;20163;-83
2022/09/04 08:36:40;;;;;;;2.08;1.70;;;21.80;91.10;;;;;;5030385;28;20091;-86
2022/09/04 08:39:12;;;;;;;1.60;1.50;;;21.90;90.50;;;;;;4986426;28;20125;-83
2022/09/04 08:42:16;;;;;;;3.20;1.63;;;22.00;89.30;;;;;;4991953;28;20022;-83
2022/09/04 08:45:14;;;;;;;1.52;1.42;;;22.10;87.70;;;;;;5035229;28;20049;-84
2022/09/04 08:48:05;;;;;;;1.67;1.30;;;22.20;87.30;;;;;;5018526;28;20125;-84
2022/09/04 08:50:55;;;;;;;1.42;1.33;;;22.40;87.00;;;;;;4978985;28;20026;-83
2022/09/04 08:53:24;;;;;;;2.13;1.77;;;22.50;85.60;;;;;;4984014;28;20359;-83
2022/09/04 08:56:17;;;;;;;2.63;1.50;;;22.70;84.30;;;;;;5003476;28;20392;-84
2022/09/04 08:58:52;;;;;;;2.20;1.80;;;22.80;84.00;;;;;;5002549;28;20018;-84
2022/09/04 09:05:09;;;;;;;1.60;1.50;;;23.30;80.20;;;;;;5010972;28;20061;-84
2022/09/04 09:08:22;;;;;;;1.42;1.35;;;23.40;78.80;;;;;;5030724;28;20018;-84
2022/09/04 09:11:09;;;;;;;1.80;1.48;;;23.60;79.20;;;;;;5015590;28;20015;-85
2022/09/04 09:13:58;;;;;;;2.58;1.48;;;23.80;77.80;;;;;;5009154;28;20062;-83
2022/09/04 09:16:52;;;;;;;1.50;1.40;;;23.80;76.40;;;;;;4996236;28;20045;-83
2022/09/04 09:19:38;;;;;;;1.30;1.20;;;23.90;76.00;;;;;;5003438;28;20030;-82
2022/09/04 09:22:14;;;;;;;1.27;1.17;;;23.90;75.90;;;;;;5018978;28;20048;-85
2022/09/04 09:25:11;;;;;;;3.72;1.30;;;24.00;74.60;;;;;;4999745;28;20026;-85
2022/09/04 09:28:12;;;;;;;1.33;1.20;;;24.20;73.50;;;;;;4998806;28;20130;-85
2022/09/04 09:31:25;;;;;;;1.38;1.30;;;24.30;72.80;;;;;;5010599;28;20097;-84
2022/09/04 09:34:10;;;;;;;1.17;1.17;;;24.50;72.70;;;;;;4998472;28;20060;-85
2022/09/04 09:36:42;;;;;;;2.05;1.38;;;24.70;72.10;;;;;;5016355;28;20018;-85
2022/09/04 09:39:20;;;;;;;1.50;1.40;;;24.80;70.30;;;;;;5029654;28;20038;-83
2022/09/04 09:42:31;;;;;;;2.83;1.50;;;24.80;70.20;;;;;;5031032;28;20046;-84
2022/09/04 09:45:20;;;;;;;1.65;1.38;;;25.00;69.50;;;;;;5016870;28;20077;-82
2022/09/04 09:48:24;;;;;;;1.25;1.15;;;25.00;68.30;;;;;;5002212;28;20042;-83
2022/09/04 09:51:21;;;;;;;1.90;1.58;;;25.00;68.20;;;;;;4998950;28;20050;-83
2022/09/04 09:53:56;;;;;;;0.93;0.93;;;24.60;69.00;;;;;;5000900;28;20361;-84
2022/09/04 09:56:50;;;;;;;1.65;1.17;;;24.80;69.50;;;;;;5017681;28;20057;-84
2022/09/04 09:59:25;;;;;;;2.35;1.42;;;25.10;67.40;;;;;;4999733;28;20042;-83
2022/09/04 10:02:29;;;;;;;2.60;0.93;;;25.10;65.50;;;;;;4989707;28;20426;-83
2022/09/04 10:05:13;;;;;;;1.08;0.93;;;25.10;63.20;;;;;;4992726;28;20085;-83
2022/09/04 10:08:03;;;;;;;1.38;1.27;;;25.10;64.70;;;;;;4992343;28;20141;-83
2022/09/04 10:10:51;;;;;;;1.33;1.23;;;25.20;65.20;;;;;;4993079;28;20023;-83
2022/09/04 10:13:55;;;;;;;1.40;1.30;;;25.50;65.20;;;;;;4998326;28;20061;-84
2022/09/04 10:17:03;;;;;;;1.10;1.10;;;25.80;64.10;;;;;;5017747;28;20014;-84
2022/09/04 10:20:20;;;;;;;1.13;1.13;;;25.70;62.90;;;;;;4998145;28;20381;-81
2022/09/04 10:23:39;;;;;;;;;;;;;;;;;;;;;
2022/09/04 10:33:25;;;;;;;2.88;1.92;;;25.20;63.80;;;;;;5010559;28;20033;-81
2022/09/04 10:36:14;;;;;;;1.33;1.23;;;25.30;64.70;;;;;;4992020;28;20045;-81
2022/09/04 10:42:40;;;;;;;1.80;1.05;;;25.60;63.00;;;;;;5016603;28;20044;-83
2022/09/04 10:45:51;;;;;;;1.58;1.10;;;25.40;59.60;;;;;;5018683;28;20507;-82
2022/09/04 10:49:11;;;;;;;;;;;;;;;;;;;;;
2022/09/04 15:15:46;;;;;;;1.13;1.10;;;27.70;49.30;;;;;;6188337;23;20031;-88
2022/09/04 15:22:37;;;;;;;1.52;0.93;;;27.60;49.30;;;;;;6190561;23;20051;-88
2022/09/04 15:26:01;;;;;;;1.00;1.00;;;27.50;49.90;;;;;;6165293;23;20063;-88
2022/09/04 15:32:09;;;;;;;1.33;1.23;;;27.40;50.00;;;;;;6223734;23;20039;-86
2022/09/04 15:34:35;;;;;;;1.77;0.98;;;27.40;49.00;;;;;;6151892;23;1425839;-86
2022/09/04 15:37:29;;;;;;;0.90;0.90;;;27.30;48.80;;;;;;6211256;23;20004;-85
2022/09/04 15:40:03;;;;;;;1.27;1.00;;;27.10;48.80;;;;;;6207222;23;20009;-85
2022/09/04 15:43:10;;;;;;;1.05;1.02;;;27.00;49.60;;;;;;6207590;23;19996;-85
2022/09/04 15:45:50;;;;;;;1.08;1.05;;;26.90;49.70;;;;;;6185822;23;19997;-87
2022/09/04 15:48:43;;;;;;;1.23;1.13;;;26.80;49.90;;;;;;6205299;23;20001;-85
2022/09/04 15:51:24;;;;;;;1.95;1.30;;;26.80;50.40;;;;;;6210665;23;20004;-86
2022/09/04 15:54:08;;;;;;;2.83;1.30;;;26.70;50.40;;;;;;6211477;23;20000;-87
2022/09/04 16:00:14;;;;;;;1.00;0.95;;;26.40;50.70;;;;;;6187497;23;20015;-85
2022/09/04 16:03:36;;;;;;;1.15;1.00;;;26.30;51.10;;;;;;6200997;23;20080;-86
2022/09/04 16:06:21;;;;;;;1.00;1.00;;;26.20;51.10;;;;;;6082364;23;20007;-87
2022/09/04 16:08:58;;;;;;;1.45;1.05;;;26.00;52.00;;;;;;6191869;23;20009;-87
2022/09/04 16:11:44;;;;;;;2.00;1.10;;;25.80;51.90;;;;;;6197380;23;20013;-87
2022/09/04 16:14:41;;;;;;;0.85;0.85;;;25.60;51.70;;;;;;6208648;23;20003;-86
2022/09/04 16:17:33;;;;;;;0.90;0.90;;;25.50;52.60;;;;;;6211370;23;19995;-87
2022/09/04 16:25:31;;;;;;;1.40;1.30;;;25.20;53.50;;;;;;6241250;23;20020;-87
2022/09/04 16:51:37;;;;;;;2.33;1.30;;;24.20;54.70;;;;;;6174098;23;20477;-84
2022/09/04 16:54:16;;;;;;;1.10;1.10;;;24.10;55.50;;;;;;6201848;23;20031;-83
2022/09/04 16:57:13;;;;;;;0.90;0.90;;;24.00;54.90;;;;;;6209488;23;20012;-84
2022/09/04 16:59:52;;;;;;;1.23;1.10;;;23.90;55.40;;;;;;6192734;23;20407;-85
2022/09/04 17:02:52;;;;;;;1.05;1.05;;;23.80;55.40;;;;;;6221468;23;20012;-84
2022/09/04 17:05:39;;;;;;;1.83;1.35;;;23.80;55.90;;;;;;6206276;23;20028;-85
2022/09/04 17:08:30;;;;;;;1.10;1.10;;;23.70;56.50;;;;;;6221826;23;20304;-85
2022/09/04 17:11:07;;;;;;;1.45;1.35;;;23.50;56.10;;;;;;6221266;23;20013;-85
2022/09/04 17:14:13;;;;;;;1.98;1.40;;;23.50;56.40;;;;;;6220689;23;20000;-84
2022/09/04 17:17:25;;;;;;;1.10;0.80;;;23.30;56.30;;;;;;6223745;23;20135;-84
2022/09/04 17:20:01;;;;;;;1.70;1.08;;;23.20;56.00;;;;;;6222441;23;20036;-85
2022/09/04 17:22:34;;;;;;;1.13;1.00;;;23.10;57.10;;;;;;6227143;23;20025;-85
2022/09/04 17:25:29;;;;;;;1.50;1.40;;;23.00;57.70;;;;;;6211374;23;20043;-85
2022/09/04 17:28:10;;;;;;;1.95;1.48;;;22.90;57.60;;;;;;6227993;23;20003;-86
2022/09/04 17:31:25;;;;;;;1.30;1.10;;;22.70;58.40;;;;;;6220398;23;20066;-85
2022/09/04 17:34:05;;;;;;;1.38;1.30;;;22.60;59.40;;;;;;6166678;23;20005;-85
2022/09/04 17:36:59;;;;;;;1.50;1.40;;;22.50;59.80;;;;;;6221368;23;20465;-85
2022/09/04 17:39:33;;;;;;;1.02;1.02;;;22.30;60.70;;;;;;6220284;23;20056;-85
2022/09/04 17:42:33;;;;;;;1.20;1.10;;;22.20;61.20;;;;;;6221345;23;20011;-85
2022/09/04 17:45:21;;;;;;;1.70;1.55;;;22.10;61.50;;;;;;6193709;23;20347;-85
2022/09/04 17:47:58;;;;;;;2.15;1.45;;;22.00;62.60;;;;;;6223659;23;20087;-84
2022/09/04 17:50:25;;;;;;;2.00;1.50;;;21.80;63.40;;;;;;6223514;23;20339;-84
2022/09/04 17:52:59;;;;;;;1.60;1.50;;;21.70;64.40;;;;;;6223695;23;20016;-85
2022/09/04 17:55:40;;;;;;;1.55;1.45;;;21.60;64.90;;;;;;6196622;23;20001;-85
2022/09/04 17:58:27;;;;;;;1.08;1.08;;;21.50;65.30;;;;;;6193148;23;20004;-85
2022/09/04 18:00:58;;;;;;;1.40;1.30;;;21.40;66.10;;;;;;6194055;23;20053;-86
2022/09/04 18:03:54;;;;;;;1.60;1.50;;;21.30;66.60;;;;;;6198347;23;20043;-85
2022/09/04 18:06:24;;;;;;;1.65;1.55;;;21.10;67.00;;;;;;6223411;23;20008;-84
2022/09/04 18:08:58;;;;;;;1.67;1.30;;;21.00;67.50;;;;;;6228414;23;20003;-84
2022/09/04 18:11:31;;;;;;;1.50;1.40;;;20.90;68.00;;;;;;6213457;23;20015;-84
2022/09/04 18:14:02;;;;;;;2.50;1.40;;;20.90;68.40;;;;;;6213405;23;20016;-83
2022/09/04 18:16:40;;;;;;;1.73;1.63;;;20.70;68.90;;;;;;6239731;23;19997;-85
2022/09/04 18:19:36;;;;;;;1.52;1.42;;;20.70;69.50;;;;;;6240842;23;20173;-85
2022/09/04 18:22:03;;;;;;;1.25;1.15;;;20.60;70.20;;;;;;6241219;23;19988;-87
2022/09/04 18:25:00;;;;;;;1.75;1.55;;;20.50;70.60;;;;;;6240557;23;19985;-84
2022/09/04 18:27:52;;;;;;;1.10;1.05;;;20.50;71.10;;;;;;6224625;23;20008;-85
2022/09/04 18:30:18;;;;;;;1.10;1.10;;;20.40;71.80;;;;;;6237002;23;20011;-84
2022/09/04 18:32:53;;;;;;;1.65;1.55;;;20.30;72.20;;;;;;6238485;23;20007;-84
2022/09/04 18:35:43;;;;;;;1.33;1.23;;;20.20;72.60;;;;;;6214738;23;20000;-85
2022/09/04 18:38:15;;;;;;;1.35;1.25;;;20.10;73.10;;;;;;6241512;23;19992;-86
2022/09/04 18:40:45;;;;;;;1.20;1.10;;;20.10;73.70;;;;;;6241981;23;20004;-85
2022/09/04 18:43:17;;;;;;;1.58;1.30;;;20.00;74.30;;;;;;6240314;23;20096;-84
2022/09/04 18:45:44;;;;;;;3.13;1.30;;;19.90;74.60;;;;;;6238646;23;19989;-85
2022/09/04 18:48:20;;;;;;;1.50;1.40;;;19.90;74.80;;;;;;6212777;23;19999;-85
2022/09/04 18:51:01;;;;;;;1.42;1.33;;;19.90;74.80;;;;;;6236620;23;20005;-85
2022/09/04 18:53:46;;;;;;;1.30;1.20;;;19.80;75.50;;;;;;6229410;23;20436;-84
2022/09/04 18:56:25;;;;;;;2.70;1.45;;;19.80;75.90;;;;;;6211025;23;19988;-84
2022/09/04 18:58:53;;;;;;;1.90;1.70;;;19.70;76.10;;;;;;6215162;23;20060;-84
2022/09/04 19:01:43;;;;;;;1.85;1.70;;;19.70;76.20;;;;;;6214488;23;19997;-84
2022/09/04 19:04:34;;;;;;;3.10;2.13;;;19.70;76.20;;;;;;6240552;23;20001;-83
2022/09/04 19:07:31;;;;;;;2.13;1.67;;;19.70;76.60;;;;;;6214250;23;20008;-84
2022/09/04 19:10:08;;;;;;;2.15;1.85;;;19.70;77.30;;;;;;6241220;23;20005;-84
2022/09/04 19:12:49;;;;;;;1.35;1.25;;;19.70;77.60;;;;;;6213956;23;20012;-84
2022/09/04 19:15:37;;;;;;;1.80;1.70;;;19.70;78.10;;;;;;6231188;23;20078;-84
2022/09/04 19:18:25;;;;;;;2.78;1.42;;;19.70;78.80;;;;;;6224349;23;20008;-83
2022/09/04 19:21:17;;;;;;;3.05;1.75;;;19.60;79.50;;;;;;6225335;23;20019;-83
2022/09/04 19:24:10;;;;;;;1.75;1.60;;;19.50;80.30;;;;;;6224957;23;20023;-85
2022/09/04 19:26:54;;;;;;;1.73;1.60;;;19.50;80.80;;;;;;6204089;23;20059;-84
2022/09/04 19:29:28;;;;;;;2.03;1.80;;;19.40;81.70;;;;;;6224057;23;20331;-83
2022/09/04 19:32:06;;;;;;;1.88;1.77;;;19.40;82.20;;;;;;6224562;23;20350;-85
2022/09/04 19:34:45;;;;;;;1.70;1.50;;;19.20;82.80;;;;;;6224096;23;19997;-85
2022/09/04 19:37:27;;;;;;;3.20;1.95;;;19.20;83.40;;;;;;6223700;23;20335;-84
2022/09/04 19:40:01;;;;;;;2.38;1.63;;;19.10;84.10;;;;;;6224975;23;20436;-84
2022/09/04 19:42:34;;;;;;;1.60;1.50;;;19.10;84.70;;;;;;6225646;23;20078;-85
2022/09/04 19:45:06;;;;;;;1.73;1.33;;;19.00;85.20;;;;;;6212879;23;19996;-84
2022/09/04 19:47:40;;;;;;;1.98;1.73;;;19.00;85.90;;;;;;6237056;23;20193;-85
2022/09/04 19:50:19;;;;;;;1.75;1.65;;;18.90;86.60;;;;;;6223325;23;20004;-84